createdAt,value
2022-11-24T00:01:10.740Z,31.55
2022-11-24T00:03:39.866Z,23.88
2022-11-24T00:06:09.559Z,43.40
2022-11-24T00:08:37.112Z,33.63
2022-11-24T00:11:05.883Z,39.13
2022-11-24T00:13:33.657Z,37.60
2022-11-24T00:16:21.302Z,31.73
2022-11-24T00:18:49.872Z,30.70
2022-11-24T00:21:17.905Z,22.48
2022-11-24T00:23:45.719Z,12.48
2022-11-24T00:26:14.921Z,27.27
2022-11-24T00:28:43.176Z,22.77
2022-11-24T00:31:24.625Z,30.42
2022-11-24T00:33:52.676Z,32.13
2022-11-24T00:36:21.136Z,29.17
2022-11-24T00:38:48.770Z,29.67
2022-11-24T00:41:19.667Z,38.92
2022-11-24T00:43:47.078Z,22.65
2022-11-24T00:46:14.893Z,31.15
2022-11-24T00:48:43.011Z,45.00
2022-11-24T00:51:11.900Z,41.00
2022-11-24T00:53:39.359Z,32.72
2022-11-24T00:56:12.528Z,18.70
2022-11-24T00:58:42.661Z,30.77
2022-11-24T01:01:17.151Z,27.50
2022-11-24T01:03:45.058Z,31.85
2022-11-24T01:06:13.975Z,32.97
2022-11-24T01:08:42.036Z,28.88
2022-11-24T01:11:12.754Z,27.45
2022-11-24T01:13:40.623Z,24.02
2022-11-24T01:16:13.965Z,24.25
2022-11-24T01:18:41.626Z,37.00
2022-11-24T01:21:10.584Z,46.50
2022-11-24T01:23:40.084Z,30.17
2022-11-24T01:26:11.622Z,23.02
2022-11-24T01:28:46.698Z,27.73
2022-11-24T01:31:16.632Z,29.70
2022-11-24T01:33:43.835Z,33.72
2022-11-24T01:36:11.974Z,20.27
2022-11-24T01:38:39.469Z,21.60
2022-11-24T01:41:17.274Z,30.10
2022-11-24T01:43:45.424Z,29.52
2022-11-24T01:46:17.001Z,24.25
2022-11-24T01:48:47.108Z,25.58
2022-11-24T01:51:15.842Z,25.08
2022-11-24T01:53:48.434Z,35.28
2022-11-24T01:56:15.990Z,17.48
2022-11-24T01:58:44.821Z,20.50
2022-11-24T02:01:12.001Z,19.52
2022-11-24T02:03:41.683Z,22.25
2022-11-24T02:06:10.506Z,30.98
2022-11-24T02:08:46.437Z,17.85
2022-11-24T02:11:16.304Z,27.45
2022-11-24T02:13:47.383Z,29.85
2022-11-24T02:16:14.731Z,20.95
2022-11-24T02:18:42.700Z,19.02
2022-11-24T02:21:18.173Z,27.23
2022-11-24T02:23:45.622Z,20.80
2022-11-24T02:26:31.146Z,28.83
2022-11-24T02:28:58.694Z,17.98
2022-11-24T02:31:25.895Z,16.45
2022-11-24T02:33:53.773Z,19.67
2022-11-24T02:36:21.540Z,19.65
2022-11-24T02:38:48.637Z,16.92
2022-11-24T02:41:17.796Z,15.18
2022-11-24T02:43:51.812Z,33.20
2022-11-24T02:46:19.384Z,27.02
2022-11-24T02:48:46.812Z,22.40
2022-11-24T02:51:16.469Z,22.58
2022-11-24T02:53:45.982Z,17.90
2022-11-24T02:56:13.583Z,25.58
2022-11-24T02:58:40.995Z,12.70
2022-11-24T03:01:09.096Z,17.88
2022-11-24T03:03:36.639Z,14.00
2022-11-24T03:06:03.786Z,19.42
2022-11-24T03:08:30.879Z,20.00
2022-11-24T03:10:58.189Z,23.30
2022-11-24T03:13:25.376Z,35.80
2022-11-24T03:15:52.518Z,15.90
2022-11-24T03:18:19.643Z,18.42
2022-11-24T03:20:46.700Z,22.70
2022-11-24T03:23:13.927Z,21.95
2022-11-24T03:25:41.439Z,18.30
2022-11-24T03:28:11.663Z,23.25
2022-11-24T03:30:41.740Z,19.58
2022-11-24T03:33:11.658Z,15.50
2022-11-24T03:35:39.869Z,16.70
2022-11-24T03:38:10.073Z,22.13
2022-11-24T03:40:38.831Z,17.30
2022-11-24T03:43:06.100Z,13.20
2022-11-24T03:45:48.802Z,16.27
2022-11-24T03:48:17.431Z,19.60
2022-11-24T03:50:44.911Z,15.05
2022-11-24T03:53:11.983Z,16.35
2022-11-24T03:55:39.599Z,14.63
2022-11-24T03:58:07.055Z,17.38
2022-11-24T04:00:34.359Z,15.18
2022-11-24T04:03:01.765Z,18.33
2022-11-24T04:05:29.038Z,16.98
2022-11-24T04:08:03.849Z,24.45
2022-11-24T04:10:31.467Z,16.08
2022-11-24T04:12:58.591Z,20.50
2022-11-24T04:15:25.759Z,22.25
2022-11-24T04:17:55.594Z,20.70
2022-11-24T04:20:23.392Z,21.20
2022-11-24T04:22:51.750Z,15.55
2022-11-24T04:25:18.919Z,16.52
2022-11-24T04:27:46.019Z,15.65
2022-11-24T04:30:13.592Z,17.33
2022-11-24T04:32:40.677Z,18.23
2022-11-24T04:35:10.302Z,27.45
2022-11-24T04:37:37.496Z,20.48
2022-11-24T04:40:05.498Z,21.83
2022-11-24T04:42:35.327Z,21.90
2022-11-24T04:45:03.504Z,20.20
2022-11-24T04:47:30.967Z,16.40
2022-11-24T04:49:58.246Z,27.38
2022-11-24T04:52:26.238Z,21.55
2022-11-24T04:54:53.619Z,17.42
2022-11-24T04:57:21.749Z,18.33
2022-11-24T04:59:49.575Z,16.45
2022-11-24T05:02:16.905Z,18.92
2022-11-24T05:04:44.648Z,11.35
2022-11-24T05:07:17.975Z,15.18
2022-11-24T05:10:05.621Z,20.30
2022-11-24T05:12:32.802Z,9.90
2022-11-24T05:15:00.625Z,10.13
2022-11-24T05:17:32.031Z,15.57
2022-11-24T05:19:59.527Z,13.73
2022-11-24T05:22:27.489Z,14.27
2022-11-24T05:24:54.766Z,12.18
2022-11-24T05:27:22.303Z,18.73
2022-11-24T05:29:49.575Z,7.65
2022-11-24T05:32:17.340Z,11.68
2022-11-24T05:34:45.518Z,8.35
2022-11-24T05:37:12.579Z,8.02
2022-11-24T05:39:39.873Z,7.97
2022-11-24T05:42:26.395Z,4.35
2022-11-24T05:44:54.574Z,12.25
2022-11-24T05:47:22.218Z,10.15
2022-11-24T05:49:49.362Z,11.35
2022-11-24T05:52:16.786Z,7.80
2022-11-24T05:54:46.682Z,11.50
2022-11-24T05:57:13.835Z,5.78
2022-11-24T05:59:41.183Z,8.43
2022-11-24T06:02:26.456Z,10.27
2022-11-24T06:04:53.792Z,7.25
2022-11-24T06:07:20.932Z,7.55
2022-11-24T06:09:51.467Z,9.70
2022-11-24T06:12:21.816Z,8.20
2022-11-24T06:14:52.475Z,6.47
2022-11-24T06:17:22.501Z,6.53
2022-11-24T06:19:51.708Z,9.98
2022-11-24T06:22:19.636Z,7.15
2022-11-24T06:24:47.499Z,9.98
2022-11-24T06:27:14.955Z,5.47
2022-11-24T06:29:42.104Z,7.13
2022-11-24T06:32:12.740Z,9.38
2022-11-24T06:34:47.532Z,6.85
2022-11-24T06:37:14.758Z,13.15
2022-11-24T06:39:42.297Z,9.20
2022-11-24T06:42:19.098Z,5.85
2022-11-24T06:44:49.518Z,7.78
2022-11-24T06:47:18.835Z,8.77
2022-11-24T06:49:46.053Z,7.47
2022-11-24T06:52:13.716Z,7.88
2022-11-24T06:54:40.880Z,12.85
2022-11-24T06:57:08.131Z,16.88
2022-11-24T06:59:38.720Z,6.47
2022-11-24T07:02:10.545Z,10.77
2022-11-24T07:04:37.771Z,11.50
2022-11-24T07:07:04.875Z,12.23
2022-11-24T07:09:32.045Z,14.15
2022-11-24T07:11:59.505Z,11.70
2022-11-24T07:14:26.832Z,13.00
2022-11-24T07:16:54.504Z,18.95
2022-11-24T07:19:24.809Z,16.20
2022-11-24T07:21:52.497Z,13.57
2022-11-24T07:24:20.169Z,13.82
2022-11-24T07:26:47.743Z,16.00
2022-11-24T07:29:18.422Z,14.40
2022-11-24T07:31:46.438Z,13.25
2022-11-24T07:34:14.873Z,17.73
2022-11-24T07:36:42.989Z,17.33
2022-11-24T07:39:13.310Z,14.88
2022-11-24T07:41:43.553Z,14.13
2022-11-24T07:44:13.761Z,17.67
2022-11-24T07:46:40.978Z,14.32
2022-11-24T07:49:10.932Z,15.73
2022-11-24T07:51:40.942Z,15.02
2022-11-24T07:54:09.754Z,19.95
2022-11-24T07:56:37.397Z,19.33
2022-11-24T07:59:04.726Z,16.85
2022-11-24T08:01:32.264Z,14.48
2022-11-24T08:03:59.803Z,20.67
2022-11-24T08:06:36.218Z,16.48
2022-11-24T08:09:10.960Z,18.75
2022-11-24T08:11:40.364Z,23.10
2022-11-24T08:14:07.493Z,24.98
2022-11-24T08:16:34.655Z,23.83
2022-11-24T08:19:01.787Z,20.02
2022-11-24T08:21:29.168Z,17.02
2022-11-24T08:23:57.238Z,25.88
2022-11-24T08:26:26.633Z,29.05
2022-11-24T08:28:55.444Z,25.33
2022-11-24T08:31:23.041Z,16.50
2022-11-24T08:33:51.595Z,17.48
2022-11-24T08:36:20.323Z,27.20
2022-11-24T08:38:49.668Z,20.88
2022-11-24T08:41:19.059Z,19.55
2022-11-24T08:43:46.395Z,20.25
2022-11-24T08:46:17.104Z,19.00
2022-11-24T08:48:46.067Z,14.02
2022-11-24T08:51:16.781Z,18.48
2022-11-24T08:53:44.361Z,18.50
2022-11-24T08:56:12.962Z,22.45
2022-11-24T08:58:44.035Z,24.20
2022-11-24T09:01:13.489Z,20.63
2022-11-24T09:03:48.207Z,26.88
2022-11-24T09:06:18.557Z,20.30
2022-11-24T09:08:46.032Z,13.05
2022-11-24T09:11:21.744Z,19.67
2022-11-24T09:13:57.498Z,27.90
2022-11-24T09:16:26.977Z,16.48
2022-11-24T09:18:59.822Z,18.58
2022-11-24T09:21:27.316Z,13.07
2022-11-24T09:23:55.332Z,16.25
2022-11-24T09:26:24.511Z,17.60
2022-11-24T09:28:54.776Z,20.33
2022-11-24T09:31:26.580Z,14.15
2022-11-24T09:33:54.247Z,8.90
2022-11-24T09:36:22.512Z,16.40
2022-11-24T09:38:49.777Z,18.08
2022-11-24T09:41:36.507Z,17.77
2022-11-24T09:44:15.958Z,10.30
2022-11-24T09:46:43.645Z,16.40
2022-11-24T09:49:16.275Z,13.65
2022-11-24T09:51:45.391Z,13.47
2022-11-24T09:54:16.926Z,17.58
2022-11-24T09:56:44.526Z,13.50
2022-11-24T09:59:16.530Z,14.95
2022-11-24T10:01:48.279Z,16.48
2022-11-24T10:04:18.605Z,12.50
2022-11-24T10:06:56.755Z,10.88
2022-11-24T10:09:37.410Z,13.00
2022-11-24T10:12:37.975Z,16.33
2022-11-24T10:15:05.288Z,17.05
2022-11-24T10:17:35.248Z,17.70
2022-11-24T10:20:24.342Z,16.80
2022-11-24T10:22:54.759Z,11.38
2022-11-24T10:25:22.307Z,14.02
2022-11-24T10:28:06.450Z,15.60
2022-11-24T10:30:36.824Z,22.00
2022-11-24T10:33:09.348Z,16.05
2022-11-24T10:35:37.084Z,16.67
2022-11-24T10:38:16.631Z,14.50
2022-11-24T10:40:57.003Z,12.55
2022-11-24T10:43:26.999Z,10.13
2022-11-24T10:45:55.098Z,14.82
2022-11-24T10:48:25.607Z,10.05
2022-11-24T10:51:02.402Z,12.77
2022-11-24T10:53:35.437Z,16.08
2022-11-24T10:56:04.599Z,10.40
2022-11-24T10:58:39.144Z,16.85
2022-11-24T11:01:29.504Z,16.58
2022-11-24T11:03:58.768Z,21.00
2022-11-24T11:06:30.354Z,16.38
2022-11-24T11:09:07.477Z,11.82
2022-11-24T11:11:35.566Z,13.60
2022-11-24T11:14:07.458Z,13.80
2022-11-24T11:16:39.440Z,14.45
2022-11-24T11:19:47.815Z,19.80
2022-11-24T11:22:13.540Z,14.32
2022-11-24T11:24:41.653Z,21.58
2022-11-24T11:27:29.797Z,20.60
2022-11-24T11:35:48.720Z,15.13
2022-11-24T11:38:19.407Z,19.98
2022-11-24T11:40:49.960Z,15.52
2022-11-24T11:43:23.529Z,21.95
2022-11-24T11:45:57.531Z,18.35
2022-11-24T11:48:27.965Z,20.10
2022-11-24T11:51:23.175Z,14.38
2022-11-24T11:53:51.881Z,17.00
2022-11-24T11:56:24.719Z,17.27
2022-11-24T11:58:52.024Z,22.88
2022-11-24T12:01:19.041Z,18.05
2022-11-24T12:03:49.441Z,18.42
2022-11-24T12:06:22.756Z,15.07
2022-11-24T12:09:19.055Z,19.20
2022-11-24T12:11:49.513Z,16.27
2022-11-24T12:14:21.985Z,16.53
2022-11-24T12:17:18.788Z,12.73
2022-11-24T12:19:57.354Z,21.90
2022-11-24T12:22:37.628Z,14.95
2022-11-24T12:25:17.270Z,20.58
2022-11-24T12:28:07.554Z,15.50
2022-11-24T12:30:48.387Z,16.05
2022-11-24T12:33:35.688Z,15.48
2022-11-24T12:36:23.076Z,12.18
2022-11-24T12:38:50.131Z,11.90
2022-11-24T12:41:42.727Z,15.55
2022-11-24T12:44:30.500Z,15.20
2022-11-24T12:47:03.384Z,14.98
2022-11-24T12:49:37.881Z,19.40
2022-11-24T12:52:23.719Z,19.88
2022-11-24T12:54:51.185Z,17.70
2022-11-24T12:57:22.234Z,20.65
2022-11-24T12:59:56.601Z,17.08
2022-11-24T13:02:42.477Z,13.07
2022-11-24T13:05:25.257Z,17.20
2022-11-24T13:07:58.007Z,15.90
2022-11-24T13:10:55.279Z,16.58
2022-11-24T13:13:14.028Z,11.43
2022-11-24T13:18:48.577Z,14.90
2022-11-24T13:21:36.066Z,12.20
2022-11-24T13:24:06.548Z,12.48
2022-11-24T13:26:41.757Z,26.13
2022-11-24T13:29:35.227Z,20.35
2022-11-24T13:32:05.460Z,14.90
2022-11-24T13:34:49.862Z,15.13
2022-11-24T13:37:33.550Z,15.93
2022-11-24T13:40:12.408Z,15.45
2022-11-24T13:42:57.832Z,12.63
2022-11-24T13:45:45.230Z,17.48
2022-11-24T13:48:22.570Z,18.75
2022-11-24T13:50:58.915Z,17.25
2022-11-24T13:53:33.900Z,22.27
2022-11-24T13:56:01.017Z,17.33
2022-11-24T13:58:44.030Z,16.52
2022-11-24T14:01:13.127Z,13.93
2022-11-24T14:04:29.830Z,12.27
2022-11-24T14:06:47.114Z,18.90
2022-11-24T14:09:52.900Z,17.48
2022-11-24T14:12:21.290Z,15.98
2022-11-24T14:14:49.530Z,15.85
2022-11-24T14:17:18.884Z,23.50
2022-11-24T14:19:47.668Z,14.95
2022-11-24T14:22:27.299Z,15.82
2022-11-24T14:24:57.203Z,16.55
2022-11-24T14:27:30.277Z,15.55
2022-11-24T14:30:07.178Z,17.23
2022-11-24T14:32:38.015Z,16.95
2022-11-24T14:35:24.134Z,18.25
2022-11-24T14:37:51.394Z,21.10
2022-11-24T14:40:37.558Z,23.20
2022-11-24T14:43:06.530Z,24.38
2022-11-24T14:45:35.095Z,12.38
2022-11-24T14:48:04.929Z,20.50
2022-11-24T14:50:32.975Z,15.23
2022-11-24T14:53:00.563Z,15.80
2022-11-24T14:55:29.674Z,12.50
2022-11-24T14:57:57.446Z,14.48
2022-11-24T15:00:29.747Z,17.02
2022-11-24T15:03:09.484Z,19.60
2022-11-24T15:05:53.874Z,12.02
2022-11-24T15:08:21.677Z,13.38
2022-11-24T15:10:56.459Z,22.65
2022-11-24T15:13:25.027Z,14.02
2022-11-24T15:16:03.654Z,16.58
2022-11-24T15:18:33.967Z,15.32
2022-11-24T15:21:03.223Z,13.48
2022-11-24T15:23:31.199Z,14.40
2022-11-24T15:26:18.864Z,14.88
2022-11-24T15:28:48.959Z,20.10
2022-11-24T15:31:16.202Z,17.17
2022-11-24T15:33:51.981Z,13.70
2022-11-24T15:36:23.019Z,17.73
2022-11-24T15:38:52.158Z,17.70
2022-11-24T15:41:27.877Z,15.48
2022-11-24T15:44:01.345Z,18.02
2022-11-24T15:48:59.172Z,17.70
2022-11-24T15:51:27.051Z,19.23
2022-11-24T15:54:00.706Z,23.80
2022-11-24T15:56:32.880Z,14.68
2022-11-24T15:59:00.834Z,27.55
2022-11-24T16:01:32.709Z,14.55
2022-11-24T16:04:00.670Z,19.20
2022-11-24T16:06:28.127Z,16.50
2022-11-24T16:08:55.386Z,17.35
2022-11-24T16:11:22.922Z,18.17
2022-11-24T16:13:53.341Z,13.63
2022-11-24T16:16:21.905Z,18.10
2022-11-24T16:18:49.204Z,31.50
2022-11-24T16:21:16.461Z,19.90
2022-11-24T16:23:44.015Z,20.23
2022-11-24T16:26:12.347Z,18.17
2022-11-24T16:28:40.927Z,20.20
2022-11-24T16:31:08.102Z,21.05
2022-11-24T16:33:35.290Z,18.25
2022-11-24T16:36:02.836Z,21.10
2022-11-24T16:38:29.908Z,19.45
2022-11-24T16:40:57.814Z,17.83
2022-11-24T16:43:25.333Z,24.02
2022-11-24T16:46:00.968Z,19.13
2022-11-24T16:48:28.191Z,24.80
2022-11-24T16:50:56.500Z,25.58
2022-11-24T16:53:23.755Z,17.98
2022-11-24T16:55:59.920Z,18.10
2022-11-24T16:58:27.185Z,22.67
2022-11-24T17:00:54.538Z,19.23
2022-11-24T17:03:21.938Z,13.75
2022-11-24T17:05:59.067Z,17.90
2022-11-24T17:08:26.567Z,16.70
2022-11-24T17:10:53.901Z,21.42
2022-11-24T17:13:21.209Z,20.80
2022-11-24T17:15:53.953Z,30.20
2022-11-24T17:18:25.651Z,20.88
2022-11-24T17:20:53.187Z,18.88
2022-11-24T17:23:20.273Z,19.45
2022-11-24T17:25:48.967Z,19.08
2022-11-24T17:28:16.084Z,21.20
2022-11-24T17:30:43.279Z,19.35
2022-11-24T17:33:13.196Z,21.88
2022-11-24T17:35:43.446Z,16.15
2022-11-24T17:38:10.913Z,15.63
2022-11-24T17:40:38.249Z,17.08
2022-11-24T17:43:06.292Z,26.48
2022-11-24T17:45:34.013Z,12.10
2022-11-24T17:48:01.185Z,20.65
2022-11-24T17:50:28.358Z,17.55
2022-11-24T17:52:55.910Z,28.90
2022-11-24T17:55:23.109Z,22.38
2022-11-24T17:57:50.468Z,18.00
2022-11-24T18:00:18.193Z,16.75
2022-11-24T18:02:45.512Z,18.70
2022-11-24T18:05:12.673Z,19.90
2022-11-24T18:07:40.086Z,17.23
2022-11-24T18:10:09.948Z,22.02
2022-11-24T18:12:38.853Z,14.90
2022-11-24T18:15:06.237Z,13.75
2022-11-24T18:17:33.354Z,18.73
2022-11-24T18:20:00.913Z,19.08
2022-11-24T18:23:04.713Z,19.98
2022-11-24T18:25:17.992Z,22.73
2022-11-24T18:27:45.293Z,20.70
2022-11-24T18:30:13.179Z,13.38
2022-11-24T18:32:43.223Z,18.92
2022-11-24T18:35:11.041Z,20.13
2022-11-24T18:37:43.569Z,18.98
2022-11-24T18:40:11.182Z,18.67
2022-11-24T18:42:41.900Z,14.05
2022-11-24T18:45:12.027Z,26.33
2022-11-24T18:47:39.391Z,10.27
2022-11-24T18:50:09.742Z,17.55
2022-11-24T18:52:36.886Z,17.27
2022-11-24T18:55:04.844Z,15.88
2022-11-24T18:57:32.116Z,16.80
2022-11-24T18:59:59.750Z,16.77
2022-11-24T19:02:27.260Z,11.55
2022-11-24T19:04:55.010Z,19.30
2022-11-24T19:07:22.105Z,18.08
2022-11-24T19:09:49.921Z,20.48
2022-11-24T19:12:17.501Z,11.32
2022-11-24T19:14:44.740Z,11.77
2022-11-24T19:17:12.196Z,17.52
2022-11-24T19:19:39.830Z,18.77
2022-11-24T19:22:06.878Z,15.23
2022-11-24T19:24:34.598Z,17.58
2022-11-24T19:27:02.175Z,8.15
2022-11-24T19:29:29.626Z,14.10
2022-11-24T19:31:57.076Z,15.93
2022-11-24T19:34:24.580Z,13.10
2022-11-24T19:36:51.922Z,16.42
2022-11-24T19:39:19.226Z,15.85
2022-11-24T19:41:46.964Z,20.13
2022-11-24T19:44:16.165Z,15.40
2022-11-24T19:46:43.749Z,15.43
2022-11-24T19:49:10.844Z,16.83
2022-11-24T19:51:39.467Z,17.73
2022-11-24T19:54:10.038Z,17.48
2022-11-24T19:56:39.904Z,17.80
2022-11-24T19:59:07.352Z,18.63
2022-11-24T20:01:37.481Z,18.63
2022-11-24T20:04:06.142Z,20.27
2022-11-24T20:06:36.897Z,16.63
2022-11-24T20:09:05.559Z,16.40
2022-11-24T20:11:32.720Z,19.23
2022-11-24T20:13:59.928Z,15.20
2022-11-24T20:16:30.159Z,10.82
2022-11-24T20:18:59.726Z,12.23
2022-11-24T20:21:31.959Z,17.05
2022-11-24T20:24:04.025Z,15.88
2022-11-24T20:26:32.815Z,11.98
2022-11-24T20:29:01.083Z,16.05
2022-11-24T20:31:29.911Z,17.50
2022-11-24T20:33:57.696Z,16.88
2022-11-24T20:36:29.155Z,16.90
2022-11-24T20:38:56.695Z,5.32
2022-11-24T20:41:25.225Z,14.07
2022-11-24T20:43:52.854Z,15.75
2022-11-24T20:46:21.827Z,13.52
2022-11-24T20:48:49.666Z,12.93
2022-11-24T20:51:18.781Z,15.70
2022-11-24T20:53:46.223Z,17.05
2022-11-24T20:56:16.726Z,11.90
2022-11-24T20:58:44.232Z,7.63
2022-11-24T21:01:13.073Z,19.45
2022-11-24T21:03:43.289Z,15.80
2022-11-24T21:06:12.000Z,17.10
2022-11-24T21:08:39.843Z,17.90
2022-11-24T21:11:10.005Z,12.50
2022-11-24T21:13:40.234Z,18.15
2022-11-24T21:16:18.880Z,11.10
2022-11-24T21:18:47.726Z,21.77
2022-11-24T21:21:14.942Z,20.70
2022-11-24T21:23:42.759Z,13.35
2022-11-24T21:26:16.569Z,15.10
2022-11-24T21:28:45.123Z,18.17
2022-11-24T21:31:20.009Z,16.33
2022-11-24T21:33:49.170Z,11.68
2022-11-24T21:36:17.838Z,14.45
2022-11-24T21:38:45.644Z,19.52
2022-11-24T21:41:14.116Z,20.38
2022-11-24T21:43:41.616Z,19.02
2022-11-24T21:46:11.089Z,13.80
2022-11-24T21:48:39.454Z,15.68
2022-11-24T21:51:08.766Z,19.98
2022-11-24T21:53:37.165Z,16.23
2022-11-24T21:56:13.945Z,15.27
2022-11-24T21:58:59.374Z,14.68
2022-11-24T22:01:28.064Z,13.55
2022-11-24T22:03:55.845Z,14.65
2022-11-24T22:06:23.175Z,21.70
2022-11-24T22:08:50.737Z,20.52
2022-11-24T22:11:19.994Z,12.68
2022-11-24T22:13:47.791Z,17.48
2022-11-24T22:16:19.020Z,14.75
2022-11-24T22:18:46.702Z,16.73
2022-11-24T22:21:15.727Z,17.83
2022-11-24T22:23:43.505Z,25.25
2022-11-24T22:26:16.137Z,14.70
2022-11-24T22:28:44.539Z,14.13
2022-11-24T22:31:14.565Z,10.13
2022-11-24T22:33:41.890Z,15.32
2022-11-24T22:36:10.028Z,12.32
2022-11-24T22:38:37.640Z,14.20
2022-11-24T22:41:11.335Z,14.85
2022-11-24T22:43:40.044Z,14.30
2022-11-24T22:46:15.201Z,12.88
2022-11-24T22:48:42.914Z,14.93
2022-11-24T22:51:11.740Z,13.90
2022-11-24T22:53:39.015Z,16.33
2022-11-24T22:56:07.478Z,14.70
2022-11-24T22:58:35.112Z,15.55
2022-11-24T23:01:09.437Z,11.95
2022-11-24T23:03:37.589Z,12.32
2022-11-24T23:06:06.246Z,16.63
2022-11-24T23:08:34.427Z,14.05
2022-11-24T23:11:02.953Z,21.73
2022-11-24T23:13:30.428Z,16.08
2022-11-24T23:16:01.792Z,11.70
2022-11-24T23:18:29.004Z,18.90
2022-11-24T23:20:56.792Z,12.90
2022-11-24T23:23:24.215Z,9.80
2022-11-24T23:25:51.718Z,14.90
2022-11-24T23:28:18.914Z,10.43
2022-11-24T23:30:46.490Z,12.50
2022-11-24T23:33:13.486Z,15.85
2022-11-24T23:35:40.630Z,13.07
2022-11-24T23:38:08.145Z,14.43
2022-11-24T23:40:35.552Z,21.08
2022-11-24T23:43:02.669Z,16.33
2022-11-24T23:45:30.161Z,13.43
2022-11-24T23:47:57.614Z,13.85
2022-11-24T23:50:24.806Z,18.30
2022-11-24T23:52:54.961Z,15.90
2022-11-24T23:55:22.487Z,17.05
2022-11-24T23:57:49.842Z,22.88
